East Providence, RI

7:39 PM EST on January 25, 2015 (GMT -0500)
Lonsdale | Change Station
CLOSE
Current Station
Personal Weather Station
Location: Lincoln, RI
Elevation: 95 ft
Nearby Weather Stations
Active Advisory: Blizzard Warning

Elev 95 ft 41.91 °N, 71.42 °W | Updated 234 days ago

Mostly Cloudy
Mostly Cloudy
24 °F
Feels Like 17 °F
N
7
Wind Variable Wind from NNW
Gusts 22 mph

Today
High -- | Low -- °F
--% Chance of Precip.
Yesterday
High -- | Low -- °F
Precip. -- in
7:04 AM 4:51 PM
Waxing Crescent, 37% visible
Pressure 29.90 in
Visibility 10.0 miles
Clouds Few 21000 ft
Mostly Cloudy 24000 ft
Mostly Cloudy 30000 ft
Windchill 17 °F
Dew Point 8 °F
Humidity 51%
Rainfall 0.00 in
Snow Depth Not available.
UV 0 out of 12
Pollen .10 out of 12
Air Quality Not available.
Flu Activity Not available.
METAR KPVD 252351Z 30007KT 10SM FEW210 BKN240 BKN300 M02/M14 A2990 RMK AO2 SLP124 T10221139 10028 21022 53047 $

More Conditions Fewer Conditions

Pressure 29.90 in
Visibility 10.0 miles
Clouds Few 21000 ft
Mostly Cloudy 24000 ft
Mostly Cloudy 30000 ft
Windchill 17 °F
Dew Point 8 °F
Humidity 51%
Rainfall 0.00 in
Snow Depth Not available.
UV 0 out of 12
Pollen .10 out of 12
Air Quality Not available.
Flu Activity Not available.
METAR KPVD 252351Z 30007KT 10SM FEW210 BKN240 BKN300 M02/M14 A2990 RMK AO2 SLP124 T10221139 10028 21022 53047 $

More Conditions Fewer Conditions

10-Day Weather Forecast

Almanac

Astronomy

Jan. 25, 2015 Rise Set
Actual Time
Civil Twilight
Nautical Twilight
Astronomical Twilight
Moon
Length of Visible Light
Length of Day
Tomorrow will be .
, % of the Moon is Illuminated

Today's Extremes

State Highs State Lows

Community

WunderPhotos

Upload Photos

1,790,022 photos uploaded!

WunderBlogs® & News

Nearby

Air Quality

  Air Quality AQ Index Pollutant
Not available.

Snow Depth

Station Depth Elevation

Earthquake Activity

City Distance Mag. Time & Date
Minimum magnitude displayed is 2.5.

Coastal Water Temperatures

Place Temperature

Nearby Weather Stations